Latest Weather Observations for Mandurah

IDW60901

Issued at 11:41 am WST Friday 16 November 2018 (issued every 10 minutes, with the page automatically refreshed every 10 minutes)

About weather observations | Map of Perth area stations | Latest observations for Perth area | Other Formats
Station Details ID: 009977 Name: MANDURAH Lat: -32.52 Lon: 115.71 Height: 3.0 m
Data from the previous 72 hours. | See also: Recent months at Mandurah
Date/Time
WST
Temp
°C
App
Temp
°C
Dew
Point
°C
Rel
Hum
%
Delta-T
°C
Wind Press
QNH
hPa
Press
MSL
hPa
Rain since
9am
mm
Dir  Spd
km/h
Gust
km/h
Spd
kts
Gust
kts
16/11:30am 30.7 30.2 14.8 38 9.7 ESE 11 20 6 11 1014.0 1014.0 0.0
16/11:00am 29.0 28.3 14.4 41 8.8 SE 11 19 6 10 1014.6 1014.6 0.0
16/10:30am 28.3 27.4 13.8 41 8.6 ESE 11 19 6 10 1015.0 1015.0 0.0
16/10:00am 27.0 25.8 14.1 45 7.7 SE 13 20 7 11 1015.4 1015.4 0.0
16/09:30am 25.3 23.6 13.5 48 6.9 ESE 15 24 8 13 1015.7 1015.7 0.0
16/09:00am 24.4 23.0 13.3 50 6.4 E 13 26 7 14 1016.0 1016.0 0.0
16/08:30am 22.9 20.8 12.5 52 5.9 E 15 26 8 14 1016.6 1016.6 0.0
16/08:00am 21.6 20.4 12.7 57 5.0 ESE 11 19 6 10 1016.5 1016.5 0.0
16/07:30am 20.4 18.6 12.1 59 4.6 ESE 13 22 7 12 1016.9 1016.9 0.0
16/07:00am 19.0 17.5 12.0 64 3.9 SE 11 17 6 9 1016.8 1016.8 0.0
16/06:30am 18.5 17.0 11.8 65 3.7 SSE 11 19 6 10 1016.7 1016.7 0.0
16/06:00am 17.9 15.5 11.5 66 3.5 SE 15 20 8 11 1016.8 1016.8 0.0
16/05:30am 17.7 15.7 10.3 62 3.9 SE 11 17 6 9 1016.9 1016.9 0.0
16/05:00am 17.7 15.3 10.1 61 4.0 ESE 13 22 7 12 1016.3 1016.3 0.0
16/04:30am 18.0 14.7 9.6 58 4.4 ESE 17 26 9 14 1016.0 1016.0 0.0
16/04:00am 18.1 14.6 8.7 54 4.9 SE 17 24 9 13 1016.2 1016.2 0.0
16/03:30am 18.6 15.5 7.4 48 5.7 SSE 13 20 7 11 1016.5 1016.5 0.0
16/03:00am 18.8 16.5 7.3 47 5.8 ESE 9 13 5 7 1016.8 1016.8 0.0
16/02:30am 19.0 16.1 6.5 44 6.2 ESE 11 19 6 10 1016.8 1016.8 0.0
16/02:00am 19.5 16.6 6.6 43 6.5 ESE 11 19 6 10 1016.7 1016.7 0.0
16/01:30am 20.4 16.6 6.0 39 7.2 ESE 15 24 8 13 1016.5 1016.5 0.0
16/01:00am 20.8 16.8 8.1 44 6.6 ESE 19 28 10 15 1016.3 1016.3 0.0
16/12:30am 21.2 18.4 10.1 49 6.0 ESE 15 22 8 12 1016.5 1016.5 0.0
16/12:00am 22.0 18.8 12.0 53 5.6 ESE 20 35 11 19 1016.5 1016.5 0.0
 
Date/Time
WST
Temp
°C
App
Temp
°C
Dew
Point
°C
Rel
Hum
%
Delta-T
°C
Wind Press
QNH
hPa
Press
MSL
hPa
Rain since
9am
mm
Dir  Spd
km/h
Gust
km/h
Spd
kts
Gust
kts
15/11:30pm 22.8 19.8 12.1 51 6.1 ESE 19 30 10 16 1016.4 1016.4 0.0
15/11:00pm 23.5 20.5 12.5 50 6.3 ESE 20 33 11 18 1016.2 1016.2 0.0
15/10:30pm 24.3 21.8 12.3 47 6.9 ESE 17 28 9 15 1016.2 1016.2 0.0
15/10:00pm 24.9 22.5 12.5 46 7.1 SE 17 26 9 14 1015.8 1015.8 0.0
15/09:30pm 24.4 22.5 13.0 49 6.6 SE 15 20 8 11 1015.8 1015.8 0.0
15/09:00pm 24.1 22.4 14.8 56 5.5 SSE 17 26 9 14 1015.4 1015.4 0.0
15/08:30pm 24.8 23.8 15.7 57 5.5 SSE 15 24 8 13 1015.2 1015.2 0.0
15/08:00pm 24.6 24.0 16.6 61 4.9 S 15 22 8 12 1015.1 1015.1 0.0
15/07:30pm 25.2 24.5 16.4 58 5.4 S 15 20 8 11 1015.1 1015.1 0.0
15/07:00pm 25.3 24.9 16.2 57 5.6 S 13 22 7 12 1015.0 1015.0 0.0
15/06:30pm 25.5 23.6 15.2 53 6.2 S 19 26 10 14 1014.7 1014.7 0.0
15/06:00pm 26.0 24.2 14.5 49 6.9 S 17 30 9 16 1014.7 1014.7 0.0
15/05:30pm 26.6 24.5 13.7 45 7.6 S 17 28 9 15 1014.7 1014.7 0.0
15/05:00pm 27.5 24.4 12.3 39 8.8 S 20 33 11 18 1014.7 1014.7 0.0
15/04:30pm 28.2 25.5 12.9 38 9.0 SSW 19 32 10 17 1014.9 1014.9 0.0
15/04:00pm 28.2 25.4 12.5 37 9.2 S 19 30 10 16 1015.1 1015.1 0.0
15/03:30pm 28.1 24.9 12.0 36 9.3 SSW 20 33 11 18 1015.3 1015.3 0.0
15/03:00pm 28.3 25.9 13.8 41 8.6 SSW 19 30 10 16 1015.5 1015.5 0.0
15/02:30pm 28.4 26.0 13.9 41 8.7 SSW 19 32 10 17 1015.8 1015.8 0.0
15/02:00pm 28.5 26.4 14.7 43 8.3 SSW 19 28 10 15 1015.9 1015.9 0.0
15/01:30pm 28.9 27.2 14.7 42 8.6 S 17 26 9 14 1016.1 1016.1 0.0
15/01:00pm 29.0 27.9 15.2 43 8.4 SSW 15 30 8 16 1016.3 1016.3 0.0
15/12:30pm 27.6 26.0 14.9 45 7.7 SSW 17 28 9 15 1016.6 1016.6 0.0
15/12:00pm 27.3 27.2 16.9 53 6.5 WSW 13 20 7 11 1016.7 1016.7 0.0
15/11:30am 27.9 26.9 13.4 40 8.6 S 11 17 6 9 1017.0 1017.0 0.0
15/11:00am 27.1 25.7 13.4 42 8.1 SSW 13 20 7 11 1017.4 1017.4 0.0
15/10:30am 26.4 25.0 13.5 45 7.6 S 13 24 7 13 1017.6 1017.6 0.0
15/10:00am 25.8 24.3 13.0 45 7.4 SSW 13 22 7 12 1017.7 1017.7 0.0
15/09:30am 24.2 22.7 13.1 50 6.4 SSE 13 20 7 11 1017.7 1017.7 0.0
15/09:00am 22.8 21.9 13.8 57 5.2 SSE 11 15 6 8 1017.8 1017.8 0.0
15/08:30am 21.5 20.3 13.9 62 4.4 S 13 17 7 9 1017.7 1017.7 0.0
15/08:00am 20.6 19.5 13.1 62 4.3 SSE 11 17 6 9 1017.7 1017.7 0.0
15/07:30am 20.4 19.6 12.9 62 4.3 S 9 11 5 6 1017.3 1017.3 0.0
15/07:00am 19.8 19.2 12.3 62 4.2 ESE 7 11 4 6 1017.0 1017.0 0.0
15/06:30am 18.9 18.5 12.9 68 3.4 SE 7 11 4 6 1016.7 1016.7 0.0
15/06:00am 18.2 17.4 12.9 71 3.0 SE 9 15 5 8 1016.5 1016.5 0.0
15/05:30am 17.9 16.5 13.4 75 2.5 SSE 13 17 7 9 1016.3 1016.3 0.0
15/05:00am 18.1 17.5 13.6 75 2.6 SSE 9 13 5 7 1015.7 1015.7 0.0
15/04:30am 18.4 17.8 13.5 73 2.8 SSE 9 15 5 8 1015.5 1015.5 0.0
15/04:00am 18.7 18.5 13.6 72 2.9 SSE 7 13 4 7 1015.1 1015.1 0.0
15/03:30am 19.1 18.9 13.5 70 3.2 SSE 7 11 4 6 1015.1 1015.1 0.0
15/03:00am 19.3 19.0 14.3 73 2.9 SSE 9 13 5 7 1015.1 1015.1 0.0
15/02:30am 19.2 18.6 13.4 69 3.3 S 9 11 5 6 1015.1 1015.1 0.0
15/02:00am 19.4 18.9 12.7 65 3.8 SE 7 9 4 5 1015.0 1015.0 0.0
15/01:30am 19.4 19.4 14.2 72 3.0 SSE 7 11 4 6 1015.2 1015.2 0.0
15/01:00am 19.2 19.6 16.4 84 1.7 SSE 9 15 5 8 1015.3 1015.3 0.0
15/12:30am 19.4 19.1 16.4 83 1.8 SSE 13 17 7 9 1015.1 1015.1 0.0
15/12:00am 19.8 19.9 16.6 82 1.9 SSE 11 15 6 8 1015.3 1015.3 0.0
 
Date/Time
WST
Temp
°C
App
Temp
°C
Dew
Point
°C
Rel
Hum
%
Delta-T
°C
Wind Press
QNH
hPa
Press
MSL
hPa
Rain since
9am
mm
Dir  Spd
km/h
Gust
km/h
Spd
kts
Gust
kts
14/11:30pm 20.3 20.2 16.9 81 2.1 SSE 13 20 7 11 1015.5 1015.5 0.0
14/11:00pm 20.4 20.6 16.8 80 2.2 SSE 11 15 6 8 1015.7 1015.7 0.0
14/10:30pm 20.5 20.3 16.7 79 2.3 S 13 17 7 9 1015.9 1015.9 0.0
14/10:00pm 20.5 20.5 16.3 77 2.5 SSE 11 17 6 9 1016.1 1016.1 0.0
14/09:30pm 20.8 20.6 15.8 73 3.0 SSE 11 15 6 8 1016.4 1016.4 0.0
14/09:00pm 21.1 20.1 14.7 67 3.8 S 13 19 7 10 1016.4 1016.4 0.0
14/08:30pm 21.3 20.6 14.2 64 4.1 S 11 17 6 9 1016.3 1016.3 0.0
14/08:00pm 21.4 20.8 14.6 65 4.0 S 11 15 6 8 1016.2 1016.2 0.0
14/07:30pm 21.5 20.4 14.2 63 4.3 S 13 17 7 9 1016.1 1016.1 0.0
14/07:00pm 21.8 21.1 14.4 63 4.3 S 11 19 6 10 1016.2 1016.2 0.0
14/06:30pm 22.3 20.3 13.9 59 4.9 S 17 24 9 13 1016.0 1016.0 0.0
14/06:00pm 22.5 21.5 14.6 61 4.7 SSW 13 20 7 11 1016.0 1016.0 0.0
14/05:30pm 23.5 22.0 14.2 56 5.5 S 15 24 8 13 1015.9 1015.9 0.0
14/05:00pm 24.1 23.7 16.1 61 4.9 SW 13 19 7 10 1015.9 1015.9 0.0
14/04:30pm 24.4 23.5 15.9 59 5.2 SW 15 22 8 12 1016.0 1016.0 0.0
14/04:00pm 25.4 23.7 14.8 52 6.3 SSW 17 26 9 14 1015.9 1015.9 0.0
14/03:30pm 26.3 25.8 16.8 56 5.9 SW 15 22 8 12 1016.1 1016.1 0.0
14/03:00pm 26.3 26.1 16.8 56 5.9 SW 13 20 7 11 1016.3 1016.3 0.0
14/02:30pm 25.6 24.6 16.5 57 5.6 WSW 17 24 9 13 1016.6 1016.6 0.0
14/02:00pm 25.5 23.9 16.1 56 5.7 SW 19 24 10 13 1016.9 1016.9 0.0
14/01:30pm 24.6 22.6 15.5 57 5.5 WSW 20 26 11 14 1017.1 1017.1 0.0
14/01:00pm 24.3 22.2 15.2 57 5.4 WSW 20 28 11 15 1017.5 1017.5 0.0
14/12:30pm 24.6 22.8 15.5 57 5.5 WSW 19 24 10 13 1017.7 1017.7 0.0
14/12:00pm 22.5 20.7 15.4 64 4.2 W 19 26 10 14 1018.2 1018.2 0.0
14/11:30am 24.7 24.7 15.1 55 5.8 W 9 13 5 7 1018.6 1018.6 0.0
14/11:00am 24.1 24.3 14.2 54 5.8 WSW 6 13 3 7 1018.9 1018.9 0.0
14/10:30am 24.5 24.1 12.5 47 6.9 ESE 6 13 3 7 1019.2 1019.2 0.0
14/10:00am 23.8 23.5 12.8 50 6.3 ESE 6 13 3 7 1019.4 1019.4 0.0
14/09:30am 22.8 21.8 12.4 52 5.9 ESE 9 19 5 10 1019.5 1019.5 0.0
14/09:00am 20.9 19.8 12.1 57 4.9 ESE 9 19 5 10 1019.5 1019.5 0.0
14/08:30am 19.8 18.4 12.1 61 4.3 SE 11 17 6 9 1019.4 1019.4 0.0
14/08:00am 18.7 16.5 12.2 66 3.6 ESE 15 20 8 11 1019.4 1019.4 0.0
14/07:30am 17.4 14.8 11.9 70 3.0 ESE 17 24 9 13 1019.4 1019.4 0.0
14/07:00am 16.5 13.5 11.9 74 2.5 ESE 19 26 10 14 1019.1 1019.1 0.0
14/06:30am 15.9 12.8 11.5 75 2.4 ESE 19 28 10 15 1019.2 1019.2 0.0
14/06:00am 15.1 12.7 11.5 79 1.9 SE 15 22 8 12 1019.1 1019.1 0.0
14/05:30am 14.8 12.8 11.6 81 1.7 SE 13 20 7 11 1018.8 1018.8 0.0
14/05:00am 14.8 12.0 11.2 79 1.9 ESE 17 24 9 13 1018.5 1018.5 0.0
14/04:30am 15.0 13.0 11.6 80 1.8 SE 13 20 7 11 1018.2 1018.2 0.0
14/04:00am 15.3 13.0 11.7 79 1.9 SE 15 20 8 11 1018.2 1018.2 0.0
14/03:30am 15.4 14.0 12.2 81 1.7 SE 11 19 6 10 1018.1 1018.1 0.0
14/03:00am 15.8 14.5 12.5 81 1.8 SE 11 15 6 8 1018.0 1018.0 0.0
14/02:30am 15.9 14.2 12.6 81 1.8 SSE 13 19 7 10 1017.8 1017.8 0.0
14/02:00am 16.1 14.2 13.0 82 1.7 SSE 15 20 8 11 1017.8 1017.8 0.0
14/01:30am 16.2 14.4 13.3 83 1.6 SSE 15 22 8 12 1017.9 1017.9 0.0
14/01:00am 16.6 14.7 13.1 80 1.9 SSE 15 22 8 12 1018.0 1018.0 0.0
14/12:30am 17.1 15.3 13.2 78 2.2 SSE 15 26 8 14 1018.0 1018.0 0.0
14/12:00am 17.4 15.1 13.1 76 2.4 SSE 17 28 9 15 1018.2 1018.2 0.0
 
Date/Time
WST
Temp
°C
App
Temp
°C
Dew
Point
°C
Rel
Hum
%
Delta-T
°C
Wind Press
QNH
hPa
Press
MSL
hPa
Rain since
9am
mm
Dir  Spd
km/h
Gust
km/h
Spd
kts
Gust
kts
13/11:30pm 17.4 14.8 13.3 77 2.3 S 19 28 10 15 1018.2 1018.2 0.0
13/11:00pm 17.9 15.4 13.6 76 2.4 S 19 28 10 15 1018.4 1018.4 0.0
13/10:30pm 18.5 16.4 13.6 73 2.8 S 17 28 9 15 1018.3 1018.3 0.0
13/10:00pm 19.0 16.7 14.1 73 2.8 S 19 28 10 15 1018.4 1018.4 0.0
13/09:30pm 19.3 16.8 14.1 72 3.0 S 20 30 11 16 1018.5 1018.5 0.0
13/09:00pm 19.4 18.0 14.6 74 2.8 S 15 28 8 15 1018.4 1018.4 0.0
13/08:30pm 19.3 18.2 15.2 77 2.4 S 15 24 8 13 1018.4 1018.4 0.0
13/08:00pm 19.0 18.9 16.0 83 1.8 SSW 11 17 6 9 1018.2 1018.2 0.0
13/07:30pm 19.1 18.4 16.3 84 1.7 SSW 15 20 8 11 1018.0 1018.0 0.0
13/07:00pm 19.4 18.9 15.9 80 2.1 SSW 13 24 7 13 1017.7 1017.7 0.0
13/06:30pm 19.8 18.3 15.4 76 2.6 SSW 17 28 9 15 1017.4 1017.4 0.0
13/06:00pm 20.4 18.6 15.6 74 2.8 SSW 19 30 10 16 1017.2 1017.2 0.0
13/05:30pm 20.8 19.0 15.6 72 3.1 SSW 19 26 10 14 1017.0 1017.0 0.0
13/05:00pm 21.4 20.1 15.7 70 3.4 SSW 17 24 9 13 1016.9 1016.9 0.0
13/04:30pm 21.8 20.2 16.1 70 3.4 SSW 19 28 10 15 1016.8 1016.8 0.0
13/04:00pm 22.0 20.5 16.3 70 3.4 SSW 19 26 10 14 1016.8 1016.8 0.0
13/03:30pm 21.3 18.9 16.5 74 2.9 WSW 24 35 13 19 1016.9 1016.9 0.0
13/03:00pm 21.8 19.7 16.1 70 3.4 SW 22 33 12 18 1017.1 1017.1 0.0
13/02:30pm 22.1 19.6 15.2 65 4.1 WSW 22 35 12 19 1017.2 1017.2 0.0
13/02:00pm 21.3 18.7 14.9 67 3.8 WSW 22 32 12 17 1017.4 1017.4 0.0
13/01:30pm 20.9 17.5 14.8 68 3.6 WSW 26 35 14 19 1017.6 1017.6 0.0
13/01:00pm 21.0 17.7 14.9 68 3.6 WSW 26 35 14 19 1017.9 1017.9 0.0
13/12:30pm 21.0 18.5 15.1 69 3.5 WSW 22 35 12 19 1018.0 1018.0 0.0
13/12:00pm 20.4 17.8 15.0 71 3.2 WSW 22 30 12 16 1018.1 1018.1 0.0

Latest Capital City Observations: Canberra | Sydney | Melbourne | Brisbane | Adelaide | Perth | Hobart | Darwin

Other Formats:

Comma delimited format used in spreadsheet applications
http://www.bom.gov.au/fwo/IDW60901/IDW60901.94605.axf

JavaScript Object Notation format (JSON) in row-major order
http://www.bom.gov.au/fwo/IDW60901/IDW60901.94605.json